createdAt,value
2023-01-30T00:01:49.735Z,100669.48
2023-01-30T00:04:17.905Z,100668.45
2023-01-30T00:06:46.402Z,100663.20
2023-01-30T00:09:17.203Z,100651.98
2023-01-30T00:11:45.124Z,100648.87
2023-01-30T00:14:13.687Z,100647.94
2023-01-30T00:16:43.144Z,100647.19
2023-01-30T00:19:11.938Z,100637.38
2023-01-30T00:21:40.538Z,100630.05
2023-01-30T00:24:08.733Z,100622.88
2023-01-30T00:26:36.867Z,100622.32
2023-01-30T00:29:05.431Z,100615.27
2023-01-30T00:31:34.048Z,100601.02
2023-01-30T00:34:02.745Z,100602.41
2023-01-30T00:36:31.403Z,100606.42
2023-01-30T00:39:00.330Z,100593.96
2023-01-30T00:41:48.736Z,100590.30
2023-01-30T00:44:35.586Z,100592.44
2023-01-30T00:47:07.300Z,100587.15
2023-01-30T00:49:36.559Z,100575.87
2023-01-30T00:52:05.321Z,100573.52
2023-01-30T00:54:33.300Z,100565.14
2023-01-30T00:57:01.283Z,100560.41
2023-01-30T00:59:29.305Z,100556.23
2023-01-30T01:01:57.333Z,100549.65
2023-01-30T01:04:25.748Z,100547.77
2023-01-30T01:06:53.749Z,100548.92
2023-01-30T01:09:21.740Z,100543.61
2023-01-30T01:11:49.687Z,100533.09
2023-01-30T01:14:17.631Z,100522.58
2023-01-30T01:16:45.813Z,100516.54
2023-01-30T01:19:14.309Z,100508.52
2023-01-30T01:21:42.381Z,100496.59
2023-01-30T01:24:12.705Z,100496.52
2023-01-30T01:26:41.961Z,100497.23
2023-01-30T01:29:15.973Z,100489.50
2023-01-30T01:31:44.152Z,100485.85
2023-01-30T01:34:12.470Z,100478.05
2023-01-30T01:36:55.855Z,100470.61
2023-01-30T01:39:23.926Z,100468.45
2023-01-30T01:41:51.834Z,100457.64
2023-01-30T01:44:19.923Z,100448.23
2023-01-30T01:46:56.863Z,100440.09
2023-01-30T01:49:29.376Z,100422.91
2023-01-30T01:52:04.211Z,100411.03
2023-01-30T01:54:41.441Z,100402.75
2023-01-30T01:57:14.136Z,100395.06
2023-01-30T01:59:50.306Z,100387.68
2023-01-30T02:02:18.449Z,100376.37
2023-01-30T02:05:06.921Z,100361.84
2023-01-30T02:08:11.824Z,100352.15
2023-01-30T02:11:33.525Z,100345.38
2023-01-30T02:14:01.628Z,100332.12
2023-01-30T02:16:29.550Z,100332.59
2023-01-30T02:18:57.492Z,100332.28
2023-01-30T02:21:43.945Z,100323.94
2023-01-30T02:24:37.282Z,100317.83
2023-01-30T02:27:13.292Z,100304.01
2023-01-30T02:30:05.894Z,100298.45
2023-01-30T02:32:55.632Z,100285.86
2023-01-30T02:35:31.927Z,100281.42
2023-01-30T02:38:06.590Z,100268.26
2023-01-30T02:40:57.874Z,100261.14
2023-01-30T02:43:38.183Z,100255.38
2023-01-30T02:46:12.681Z,100252.02
2023-01-30T02:48:53.692Z,100257.88
2023-01-30T02:51:32.260Z,100252.38
2023-01-30T02:54:00.650Z,100255.73
2023-01-30T02:56:28.826Z,100249.52
2023-01-30T02:58:59.886Z,100230.65
2023-01-30T03:01:51.944Z,100224.65
2023-01-30T03:04:38.323Z,100230.70
2023-01-30T03:07:15.809Z,100216.69
2023-01-30T03:10:06.784Z,100214.88
2023-01-30T03:12:50.528Z,100208.45
2023-01-30T03:15:24.750Z,100216.05
2023-01-30T03:17:52.723Z,100212.19
2023-01-30T03:20:20.818Z,100211.09
2023-01-30T03:22:48.728Z,100215.20
2023-01-30T03:25:22.082Z,100197.45
2023-01-30T03:27:51.241Z,100185.33
2023-01-30T03:30:19.637Z,100186.38
2023-01-30T03:32:48.066Z,100188.55
2023-01-30T03:35:18.128Z,100178.07
2023-01-30T03:37:46.458Z,100186.79
2023-01-30T03:40:15.780Z,100188.53
2023-01-30T03:42:43.771Z,100182.88
2023-01-30T03:45:11.857Z,100170.34
2023-01-30T03:47:39.850Z,100160.84
2023-01-30T03:50:08.993Z,100152.09
2023-01-30T03:52:37.173Z,100146.88
2023-01-30T03:55:07.425Z,100143.86
2023-01-30T03:57:35.561Z,100141.75
2023-01-30T04:00:04.958Z,100143.02
2023-01-30T04:02:44.113Z,100129.34
2023-01-30T04:05:14.100Z,100119.85
2023-01-30T04:07:44.841Z,100120.66
2023-01-30T04:10:15.577Z,100120.47
2023-01-30T04:12:43.857Z,100113.39
2023-01-30T04:15:12.101Z,100101.27
2023-01-30T04:18:15.619Z,100098.08
2023-01-30T04:20:55.099Z,100085.34
2023-01-30T04:23:29.835Z,100074.48
2023-01-30T04:25:58.263Z,100060.52
2023-01-30T04:28:26.527Z,100052.34
2023-01-30T04:30:54.824Z,100050.58
2023-01-30T04:33:43.680Z,100041.65
2023-01-30T04:36:12.818Z,100051.23
2023-01-30T04:38:41.266Z,100049.73
2023-01-30T04:41:16.369Z,100052.19
2023-01-30T04:43:44.809Z,100047.19
2023-01-30T04:46:45.548Z,100030.73
2023-01-30T04:49:13.848Z,100018.73
2023-01-30T04:51:41.942Z,100005.49
2023-01-30T04:54:10.409Z,99996.30
2023-01-30T04:56:38.316Z,100018.77
2023-01-30T04:59:07.531Z,100012.95
2023-01-30T05:01:39.962Z,100001.52
2023-01-30T05:04:08.088Z,99997.36
2023-01-30T05:06:36.819Z,99990.81
2023-01-30T05:09:04.994Z,99989.32
2023-01-30T05:11:34.121Z,99979.74
2023-01-30T05:14:02.331Z,99973.73
2023-01-30T05:16:30.443Z,99968.02
2023-01-30T05:18:58.452Z,99967.27
2023-01-30T05:21:28.113Z,99963.90
2023-01-30T05:23:56.555Z,99961.05
2023-01-30T05:26:24.772Z,99952.34
2023-01-30T05:28:56.619Z,99941.08
2023-01-30T05:31:24.806Z,99926.43
2023-01-30T05:33:52.994Z,99927.66
2023-01-30T05:36:22.020Z,99917.68
2023-01-30T05:38:50.164Z,99912.77
2023-01-30T05:41:18.525Z,99903.27
2023-01-30T05:43:49.881Z,99907.70
2023-01-30T05:46:18.117Z,99901.27
2023-01-30T05:48:46.372Z,99896.47
2023-01-30T05:51:25.376Z,99897.85
2023-01-30T05:53:53.619Z,99890.08
2023-01-30T05:56:21.564Z,99882.19
2023-01-30T05:58:56.306Z,99888.44
2023-01-30T06:01:24.386Z,99890.70
2023-01-30T06:03:52.471Z,99891.69
2023-01-30T06:06:20.560Z,99886.23
2023-01-30T06:08:48.679Z,99879.17
2023-01-30T06:11:17.228Z,99879.30
2023-01-30T06:13:45.351Z,99873.73
2023-01-30T06:16:14.699Z,99869.02
2023-01-30T06:18:42.948Z,99858.63
2023-01-30T06:21:11.161Z,99850.28
2023-01-30T06:23:39.280Z,99856.64
2023-01-30T06:26:09.146Z,99850.48
2023-01-30T06:28:37.572Z,99847.86
2023-01-30T06:31:07.557Z,99842.92
2023-01-30T06:33:35.886Z,99838.43
2023-01-30T06:36:04.285Z,99831.05
2023-01-30T06:38:32.273Z,99826.30
2023-01-30T06:41:00.194Z,99828.10
2023-01-30T06:43:28.114Z,99831.02
2023-01-30T06:45:58.317Z,99832.26
2023-01-30T06:48:26.379Z,99834.11
2023-01-30T06:50:54.299Z,99824.46
2023-01-30T06:53:25.412Z,99824.69
2023-01-30T06:55:53.336Z,99826.14
2023-01-30T06:58:21.845Z,99824.25
2023-01-30T07:00:50.470Z,99818.66
2023-01-30T07:03:18.513Z,99814.94
2023-01-30T07:05:47.234Z,99809.89
2023-01-30T07:08:15.558Z,99803.19
2023-01-30T07:10:43.932Z,99795.35
2023-01-30T07:13:12.325Z,99792.05
2023-01-30T07:15:40.414Z,99781.92
2023-01-30T07:18:08.490Z,99791.91
2023-01-30T07:20:36.496Z,99787.75
2023-01-30T07:23:04.543Z,99782.38
2023-01-30T07:25:32.687Z,99777.02
2023-01-30T07:28:01.501Z,99776.34
2023-01-30T07:30:32.005Z,99768.42
2023-01-30T07:33:00.319Z,99766.05
2023-01-30T07:35:30.211Z,99771.39
2023-01-30T07:37:58.401Z,99764.77
2023-01-30T07:40:26.907Z,99757.84
2023-01-30T07:43:06.924Z,99761.86
2023-01-30T07:45:37.566Z,99757.67
2023-01-30T07:48:06.279Z,99758.06
2023-01-30T07:50:34.512Z,99760.66
2023-01-30T07:53:04.493Z,99760.59
2023-01-30T07:55:33.845Z,99751.80
2023-01-30T07:58:01.940Z,99752.17
2023-01-30T08:00:30.148Z,99743.06
2023-01-30T08:02:58.650Z,99734.31
2023-01-30T08:05:26.898Z,99735.52
2023-01-30T08:07:57.881Z,99732.64
2023-01-30T08:10:25.925Z,99727.50
2023-01-30T08:12:53.875Z,99719.88
2023-01-30T08:15:22.921Z,99721.89
2023-01-30T08:17:55.609Z,99723.34
2023-01-30T08:20:24.184Z,99717.65
2023-01-30T08:22:52.538Z,99723.15
2023-01-30T08:25:22.801Z,99722.58
2023-01-30T08:27:50.995Z,99720.08
2023-01-30T08:30:20.017Z,99708.48
2023-01-30T08:32:48.568Z,99724.31
2023-01-30T08:35:16.688Z,99718.22
2023-01-30T08:37:44.649Z,99723.27
2023-01-30T08:40:13.146Z,99724.67
2023-01-30T08:42:43.485Z,99724.56
2023-01-30T08:45:11.773Z,99726.98
2023-01-30T08:47:39.848Z,99724.08
2023-01-30T08:50:08.543Z,99721.89
2023-01-30T08:52:36.528Z,99723.14
2023-01-30T08:55:04.892Z,99719.34
2023-01-30T08:57:33.640Z,99720.63
2023-01-30T09:00:01.664Z,99712.77
2023-01-30T09:02:29.579Z,99710.79
2023-01-30T09:04:57.631Z,99712.60
2023-01-30T09:07:26.141Z,99713.83
2023-01-30T09:09:54.646Z,99721.33
2023-01-30T09:12:22.719Z,99723.08
2023-01-30T09:14:53.137Z,99724.61
2023-01-30T09:17:21.813Z,99728.18
2023-01-30T09:19:49.791Z,99720.86
2023-01-30T09:22:17.856Z,99714.81
2023-01-30T09:24:45.834Z,99713.97
2023-01-30T09:27:13.865Z,99711.09
2023-01-30T09:29:43.636Z,99708.57
2023-01-30T09:32:12.823Z,99703.23
2023-01-30T09:34:40.745Z,99699.68
2023-01-30T09:37:09.630Z,99702.88
2023-01-30T09:39:37.582Z,99693.88
2023-01-30T09:42:23.791Z,99691.94
2023-01-30T09:44:55.895Z,99687.20
2023-01-30T09:47:51.995Z,99687.69
2023-01-30T09:50:44.237Z,99681.69
2023-01-30T09:53:16.397Z,99680.98
2023-01-30T09:55:46.269Z,99679.22
2023-01-30T09:58:19.206Z,99669.54
2023-01-30T10:00:48.281Z,99665.94
2023-01-30T10:03:19.222Z,99660.40
2023-01-30T10:05:54.152Z,99659.84
2023-01-30T10:08:47.125Z,99659.13
2023-01-30T10:11:23.899Z,99655.22
2023-01-30T10:14:29.683Z,99654.15
2023-01-30T10:17:08.079Z,99647.13
2023-01-30T10:19:42.912Z,99641.17
2023-01-30T10:22:37.116Z,99639.76
2023-01-30T10:25:32.283Z,99632.44
2023-01-30T10:28:21.321Z,99628.19
2023-01-30T10:30:51.068Z,99621.45
2023-01-30T10:33:24.481Z,99621.98
2023-01-30T10:36:08.837Z,99619.42
2023-01-30T10:38:50.692Z,99612.98
2023-01-30T10:41:41.511Z,99610.59
2023-01-30T10:44:12.197Z,99603.45
2023-01-30T10:46:55.602Z,99594.42
2023-01-30T10:49:23.710Z,99600.45
2023-01-30T10:52:10.465Z,99606.90
2023-01-30T10:54:43.268Z,99602.42
2023-01-30T10:57:18.188Z,99594.59
2023-01-30T11:00:10.770Z,99603.92
2023-01-30T11:02:52.772Z,99593.91
2023-01-30T11:05:25.232Z,99596.88
2023-01-30T11:07:53.333Z,99598.45
2023-01-30T11:10:26.620Z,99587.29
2023-01-30T11:13:21.639Z,99592.02
2023-01-30T11:15:54.142Z,99586.64
2023-01-30T11:19:06.680Z,99590.07
2023-01-30T11:21:16.369Z,99590.44
2023-01-30T11:23:44.534Z,99581.23
2023-01-30T11:26:29.502Z,99580.57
2023-01-30T11:29:00.804Z,99577.23
2023-01-30T11:31:40.794Z,99575.13
2023-01-30T11:34:17.336Z,99570.73
2023-01-30T11:36:47.369Z,99568.42
2023-01-30T11:39:16.095Z,99565.59
2023-01-30T11:41:58.801Z,99568.01
2023-01-30T11:44:27.938Z,99566.30
2023-01-30T11:46:59.694Z,99555.30
2023-01-30T11:49:46.507Z,99552.26
2023-01-30T11:52:30.735Z,99543.78
2023-01-30T11:55:05.780Z,99535.12
2023-01-30T11:57:50.903Z,99538.07
2023-01-30T12:00:39.087Z,99539.30
2023-01-30T12:03:11.259Z,99534.23
2023-01-30T12:05:42.803Z,99539.85
2023-01-30T12:08:24.782Z,99537.95
2023-01-30T12:11:01.792Z,99522.54
2023-01-30T12:13:43.829Z,99528.33
2023-01-30T12:16:15.307Z,99524.85
2023-01-30T12:18:57.056Z,99526.23
2023-01-30T12:21:43.801Z,99534.30
2023-01-30T12:24:12.244Z,99525.50
2023-01-30T12:27:05.170Z,99526.69
2023-01-30T12:29:50.215Z,99529.61
2023-01-30T12:32:20.360Z,99531.63
2023-01-30T12:34:48.980Z,99523.83
2023-01-30T12:37:23.553Z,99526.05
2023-01-30T12:40:12.094Z,99526.48
2023-01-30T12:43:00.755Z,99530.98
2023-01-30T12:45:31.291Z,99526.20
2023-01-30T12:48:25.519Z,99522.09
2023-01-30T12:51:06.274Z,99506.64
2023-01-30T12:53:56.791Z,99501.86
2023-01-30T12:56:34.003Z,99495.54
2023-01-30T12:59:35.135Z,99491.65
2023-01-30T13:02:28.492Z,99481.09
2023-01-30T13:05:15.463Z,99475.04
2023-01-30T13:08:06.195Z,99489.77
2023-01-30T13:10:36.829Z,99492.51
2023-01-30T13:13:13.764Z,99486.84
2023-01-30T13:15:49.635Z,99482.95
2023-01-30T13:18:26.761Z,99484.95
2023-01-30T13:21:06.922Z,99490.52
2023-01-30T13:23:34.910Z,99473.75
2023-01-30T13:26:07.225Z,99474.67
2023-01-30T13:28:40.797Z,99478.04
2023-01-30T13:31:11.785Z,99480.78
2023-01-30T13:33:43.725Z,99474.96
2023-01-30T13:36:26.686Z,99481.27
2023-01-30T13:39:04.756Z,99488.36
2023-01-30T13:41:37.549Z,99496.98
2023-01-30T13:44:27.869Z,99505.53
2023-01-30T13:46:56.224Z,99500.53
2023-01-30T13:49:42.507Z,99505.69
2023-01-30T13:52:18.180Z,99509.14
2023-01-30T13:54:55.282Z,99510.86
2023-01-30T13:57:47.900Z,99505.16
2023-01-30T14:00:32.556Z,99508.74
2023-01-30T14:03:15.327Z,99510.34
2023-01-30T14:05:54.863Z,99505.98
2023-01-30T14:08:25.715Z,99503.16
2023-01-30T14:10:55.826Z,99510.33
2023-01-30T14:13:24.990Z,99514.33
2023-01-30T14:16:04.422Z,99501.09
2023-01-30T14:18:36.699Z,99497.59
2023-01-30T14:21:27.052Z,99500.86
2023-01-30T14:23:59.303Z,99504.08
2023-01-30T14:26:50.625Z,99496.80
2023-01-30T14:29:37.824Z,99503.17
2023-01-30T14:32:14.830Z,99509.13
2023-01-30T14:35:04.278Z,99513.59
2023-01-30T14:37:36.031Z,99515.39
2023-01-30T14:40:27.749Z,99523.91
2023-01-30T14:43:18.093Z,99522.77
2023-01-30T14:46:02.999Z,99521.14
2023-01-30T14:48:53.024Z,99514.79
2023-01-30T14:51:24.811Z,99516.67
2023-01-30T14:54:00.758Z,99514.76
2023-01-30T14:56:51.364Z,99516.96
2023-01-30T14:59:24.018Z,99520.84
2023-01-30T15:02:13.651Z,99528.59
2023-01-30T15:04:49.436Z,99528.40
2023-01-30T15:07:22.578Z,99531.12
2023-01-30T15:10:03.472Z,99530.42
2023-01-30T15:12:54.180Z,99526.07
2023-01-30T15:15:59.524Z,99518.17
2023-01-30T15:19:05.991Z,99521.34
2023-01-30T15:21:43.601Z,99508.77
2023-01-30T15:24:20.565Z,99509.95
2023-01-30T15:27:07.319Z,99516.31
2023-01-30T15:30:00.447Z,99516.50
2023-01-30T15:32:29.519Z,99519.62
2023-01-30T15:35:19.712Z,99521.52
2023-01-30T15:37:52.930Z,99531.10
2023-01-30T15:40:26.611Z,99531.88
2023-01-30T15:43:00.969Z,99530.83
2023-01-30T15:45:47.562Z,99534.09
2023-01-30T15:48:25.874Z,99538.25
2023-01-30T15:50:54.859Z,99539.18
2023-01-30T15:53:34.586Z,99539.50
2023-01-30T15:56:04.473Z,99541.20
2023-01-30T15:58:32.974Z,99549.83
2023-01-30T16:01:02.016Z,99560.77
2023-01-30T16:03:36.955Z,99560.20
2023-01-30T16:06:05.293Z,99565.10
2023-01-30T16:08:36.591Z,99574.09
2023-01-30T16:11:04.774Z,99561.89
2023-01-30T16:13:33.467Z,99560.23
2023-01-30T16:16:08.333Z,99565.61
2023-01-30T16:18:48.410Z,99561.50
2023-01-30T16:21:18.786Z,99562.97
2023-01-30T16:24:07.543Z,99575.13
2023-01-30T16:26:36.118Z,99587.37
2023-01-30T16:29:08.522Z,99588.52
2023-01-30T16:31:39.670Z,99592.11
2023-01-30T16:34:30.121Z,99591.33
2023-01-30T16:37:02.824Z,99590.73
2023-01-30T16:39:34.943Z,99598.84
2023-01-30T16:42:17.237Z,99608.66
2023-01-30T16:44:45.264Z,99597.13
2023-01-30T16:47:34.720Z,99602.15
2023-01-30T16:50:02.744Z,99604.02
2023-01-30T16:52:45.130Z,99603.89
2023-01-30T16:55:26.620Z,99602.92
2023-01-30T16:58:00.191Z,99607.45
2023-01-30T17:00:36.718Z,99617.31
2023-01-30T17:03:19.422Z,99609.47
2023-01-30T17:05:49.432Z,99618.68
2023-01-30T17:08:39.270Z,99614.53
2023-01-30T17:11:07.244Z,99605.96
2023-01-30T17:13:42.244Z,99602.71
2023-01-30T17:16:22.534Z,99603.54
2023-01-30T17:18:52.256Z,99611.55
2023-01-30T17:21:21.107Z,99607.96
2023-01-30T17:24:00.386Z,99613.59
2023-01-30T17:26:28.667Z,99620.92
2023-01-30T17:28:56.723Z,99625.00
2023-01-30T17:31:25.051Z,99637.42
2023-01-30T17:33:53.415Z,99620.36
2023-01-30T17:36:26.385Z,99628.41
2023-01-30T17:38:55.012Z,99629.55
2023-01-30T17:41:24.767Z,99632.84
2023-01-30T17:43:52.746Z,99635.61
2023-01-30T17:46:23.497Z,99622.98
2023-01-30T17:48:52.419Z,99641.60
2023-01-30T17:51:20.516Z,99651.08
2023-01-30T17:53:48.539Z,99647.98
2023-01-30T17:56:30.624Z,99647.35
2023-01-30T17:58:58.591Z,99646.65
2023-01-30T18:01:27.013Z,99643.46
2023-01-30T18:03:55.241Z,99635.60
2023-01-30T18:06:23.533Z,99634.42
2023-01-30T18:08:51.625Z,99638.74
2023-01-30T18:11:21.024Z,99644.37
2023-01-30T18:13:50.817Z,99640.89
2023-01-30T18:16:31.388Z,99638.20
2023-01-30T18:19:03.549Z,99649.60
2023-01-30T18:21:32.722Z,99650.71
2023-01-30T18:24:01.157Z,99654.42
2023-01-30T18:26:30.102Z,99660.94
2023-01-30T18:28:58.258Z,99656.27
2023-01-30T18:31:28.937Z,99658.79
2023-01-30T18:33:57.046Z,99657.25
2023-01-30T18:36:25.200Z,99662.02
2023-01-30T18:38:54.268Z,99652.52
2023-01-30T18:41:24.193Z,99650.88
2023-01-30T18:43:57.189Z,99648.30
2023-01-30T18:46:25.991Z,99649.50
2023-01-30T18:48:54.734Z,99654.41
2023-01-30T18:51:25.225Z,99655.16
2023-01-30T18:53:53.637Z,99663.82
2023-01-30T18:56:24.817Z,99670.28
2023-01-30T18:58:54.895Z,99673.16
2023-01-30T19:01:24.747Z,99672.92
2023-01-30T19:03:57.071Z,99677.63
2023-01-30T19:06:25.394Z,99682.94
2023-01-30T19:08:53.594Z,99694.52
2023-01-30T19:11:40.786Z,99692.74
2023-01-30T19:14:09.279Z,99696.21
2023-01-30T19:16:38.504Z,99702.86
2023-01-30T19:19:07.460Z,99702.98
2023-01-30T19:21:35.897Z,99708.02
2023-01-30T19:24:06.948Z,99710.66
2023-01-30T19:26:35.416Z,99722.02
2023-01-30T19:29:03.721Z,99727.53
2023-01-30T19:31:32.112Z,99726.13
2023-01-30T19:34:01.595Z,99726.14
2023-01-30T19:36:32.812Z,99734.83
2023-01-30T19:39:01.887Z,99740.50
2023-01-30T19:41:31.536Z,99748.10
2023-01-30T19:44:01.459Z,99744.23
2023-01-30T19:46:29.701Z,99749.02
2023-01-30T19:48:58.034Z,99745.12
2023-01-30T19:51:33.150Z,99734.98
2023-01-30T19:54:06.344Z,99749.38
2023-01-30T19:56:34.721Z,99744.72
2023-01-30T19:59:03.329Z,99740.40
2023-01-30T20:01:33.199Z,99739.81
2023-01-30T20:04:05.056Z,99745.49
2023-01-30T20:06:33.948Z,99751.88
2023-01-30T20:09:07.565Z,99758.32
2023-01-30T20:11:36.503Z,99755.73
2023-01-30T20:14:06.851Z,99764.75
2023-01-30T20:16:36.019Z,99764.99
2023-01-30T20:19:06.428Z,99774.98
2023-01-30T20:21:35.025Z,99784.06
2023-01-30T20:24:03.861Z,99782.63
2023-01-30T20:26:35.431Z,99786.17
2023-01-30T20:29:04.487Z,99792.45
2023-01-30T20:31:34.948Z,99803.98
2023-01-30T20:34:04.523Z,99807.95
2023-01-30T20:36:33.248Z,99816.64
2023-01-30T20:39:04.119Z,99811.31
2023-01-30T20:41:35.189Z,99810.92
2023-01-30T20:44:03.894Z,99815.13
2023-01-30T20:46:42.997Z,99818.76
2023-01-30T20:49:21.701Z,99819.38
2023-01-30T20:51:51.545Z,99828.60
2023-01-30T20:54:21.351Z,99832.16
2023-01-30T20:56:51.311Z,99839.62
2023-01-30T20:59:24.073Z,99842.36
2023-01-30T21:01:56.450Z,99843.30
2023-01-30T21:04:24.873Z,99847.48
2023-01-30T21:06:53.275Z,99848.49
2023-01-30T21:09:23.000Z,99854.33
2023-01-30T21:11:52.835Z,99858.09
2023-01-30T21:14:26.590Z,99859.92
2023-01-30T21:17:00.378Z,99857.20
2023-01-30T21:19:31.411Z,99866.52
2023-01-30T21:22:08.245Z,99869.49
2023-01-30T21:24:36.813Z,99874.76
2023-01-30T21:27:05.110Z,99874.80
2023-01-30T21:29:33.340Z,99874.64
2023-01-30T21:32:01.361Z,99879.52
2023-01-30T21:34:29.414Z,99883.50
2023-01-30T21:37:16.495Z,99884.58
2023-01-30T21:40:03.112Z,99885.02
2023-01-30T21:42:49.776Z,99893.11
2023-01-30T21:45:20.785Z,99895.77
2023-01-30T21:47:54.297Z,99892.32
2023-01-30T21:50:22.415Z,99898.85
2023-01-30T21:52:50.956Z,99904.70
2023-01-30T21:55:19.433Z,99901.52
2023-01-30T21:57:47.946Z,99905.02
2023-01-30T22:00:16.081Z,99911.15
2023-01-30T22:02:44.222Z,99917.05
2023-01-30T22:05:12.998Z,99922.96
2023-01-30T22:07:41.353Z,99931.88
2023-01-30T22:10:10.198Z,99932.48
2023-01-30T22:12:40.236Z,99938.59
2023-01-30T22:15:09.199Z,99943.45
2023-01-30T22:17:37.460Z,99949.39
2023-01-30T22:20:05.853Z,99950.58
2023-01-30T22:22:33.892Z,99954.56
2023-01-30T22:25:01.980Z,99956.67
2023-01-30T22:27:29.984Z,99962.08
2023-01-30T22:29:58.091Z,99966.70
2023-01-30T22:32:26.262Z,99968.02
2023-01-30T22:34:54.668Z,99967.77
2023-01-30T22:37:23.161Z,99971.98
2023-01-30T22:39:51.335Z,99972.30
2023-01-30T22:42:19.332Z,99976.75
2023-01-30T22:44:49.806Z,99978.45
2023-01-30T22:47:17.949Z,99981.77
2023-01-30T22:49:46.051Z,99981.65
2023-01-30T22:52:14.058Z,99985.55
2023-01-30T22:54:42.126Z,99992.52
2023-01-30T22:57:10.091Z,99987.15
2023-01-30T22:59:38.187Z,100000.17
2023-01-30T23:02:10.305Z,100004.20
2023-01-30T23:04:38.278Z,100009.17
2023-01-30T23:07:06.436Z,100009.71
2023-01-30T23:09:34.519Z,100010.89
2023-01-30T23:12:21.345Z,100014.20
2023-01-30T23:14:49.345Z,100015.05
2023-01-30T23:17:36.013Z,100020.76
2023-01-30T23:20:04.812Z,100026.27
2023-01-30T23:22:33.579Z,100028.13
2023-01-30T23:25:01.630Z,100031.58
2023-01-30T23:27:29.608Z,100028.98
2023-01-30T23:29:57.567Z,100038.75
2023-01-30T23:32:25.552Z,100035.79
2023-01-30T23:34:53.715Z,100037.37
2023-01-30T23:37:44.626Z,100047.59
2023-01-30T23:40:12.813Z,100047.83
2023-01-30T23:42:40.868Z,100048.98
2023-01-30T23:45:09.460Z,100048.86
2023-01-30T23:47:37.975Z,100055.69
2023-01-30T23:50:06.513Z,100053.64
2023-01-30T23:52:35.254Z,100060.00
2023-01-30T23:55:04.553Z,100061.91
2023-01-30T23:57:32.762Z,100061.62
